createdAt,value
2023-02-14T00:00:07.309Z,1025.69
2023-02-14T00:03:07.321Z,1025.73
2023-02-14T00:06:07.317Z,1025.7
2023-02-14T00:09:07.316Z,1025.73
2023-02-14T00:12:07.306Z,1025.73
2023-02-14T00:15:07.333Z,1025.71
2023-02-14T00:18:07.309Z,1025.72
2023-02-14T00:21:07.311Z,1025.7
2023-02-14T00:24:07.316Z,1025.74
2023-02-14T00:27:07.304Z,1025.79
2023-02-14T00:30:07.359Z,1025.74
2023-02-14T00:33:07.303Z,1025.72
2023-02-14T00:36:07.568Z,1025.71
2023-02-14T00:39:07.312Z,1025.66
2023-02-14T00:42:07.308Z,1025.61
2023-02-14T00:45:07.303Z,1025.66
2023-02-14T00:48:07.312Z,1025.69
2023-02-14T00:51:07.326Z,1025.72
2023-02-14T00:54:07.312Z,1025.67
2023-02-14T00:57:07.314Z,1025.69
2023-02-14T01:00:07.319Z,1025.7
2023-02-14T01:03:07.317Z,1025.68
2023-02-14T01:06:07.343Z,1025.69
2023-02-14T01:09:07.318Z,1025.63
2023-02-14T01:12:07.311Z,1025.63
2023-02-14T01:15:07.315Z,1025.65
2023-02-14T01:18:07.318Z,1025.68
2023-02-14T01:21:07.325Z,1025.69
2023-02-14T01:24:07.315Z,1025.66
2023-02-14T01:27:07.325Z,1025.67
2023-02-14T01:30:07.366Z,1025.64
2023-02-14T01:33:07.323Z,1025.63
2023-02-14T01:36:07.329Z,1025.64
2023-02-14T01:39:07.325Z,1025.66
2023-02-14T01:42:07.319Z,1025.65
2023-02-14T01:45:07.322Z,1025.63
2023-02-14T01:48:07.327Z,1025.67
2023-02-14T01:51:07.322Z,1025.71
2023-02-14T01:54:07.324Z,1025.72
2023-02-14T01:57:07.320Z,1025.7
2023-02-14T02:00:07.337Z,1025.69
2023-02-14T02:03:07.328Z,1025.67
2023-02-14T02:06:07.332Z,1025.68
2023-02-14T02:09:07.365Z,1025.66
2023-02-14T02:12:07.331Z,1025.7
2023-02-14T02:15:07.332Z,1025.7
2023-02-14T02:18:07.329Z,1025.65
2023-02-14T02:21:07.332Z,1025.61
2023-02-14T02:24:07.328Z,1025.54
2023-02-14T02:27:08.559Z,1025.55
2023-02-14T02:30:12.400Z,1025.5
2023-02-14T02:33:07.338Z,1025.51
2023-02-14T02:36:07.333Z,1025.54
2023-02-14T02:39:07.336Z,1025.52
2023-02-14T02:42:07.336Z,1025.49
2023-02-14T02:45:07.333Z,1025.51
2023-02-14T02:48:07.341Z,1025.51
2023-02-14T02:51:07.329Z,1025.47
2023-02-14T02:54:07.338Z,1025.45
2023-02-14T02:57:07.334Z,1025.44
2023-02-14T03:00:07.336Z,1025.47
2023-02-14T03:03:07.332Z,1025.47
2023-02-14T03:06:07.336Z,1025.48
2023-02-14T03:09:07.333Z,1025.51
2023-02-14T03:12:07.337Z,1025.57
2023-02-14T03:15:07.339Z,1025.59
2023-02-14T03:18:07.340Z,1025.58
2023-02-14T03:21:07.341Z,1025.55
2023-02-14T03:24:07.340Z,1025.52
2023-02-14T03:27:07.334Z,1025.48
2023-02-14T03:30:07.360Z,1025.48
2023-02-14T03:33:07.338Z,1025.52
2023-02-14T03:36:07.342Z,1025.51
2023-02-14T03:39:07.356Z,1025.5
2023-02-14T03:42:07.347Z,1025.49
2023-02-14T03:45:07.373Z,1025.53
2023-02-14T03:48:07.353Z,1025.56
2023-02-14T03:51:07.340Z,1025.58
2023-02-14T03:54:07.352Z,1025.56
2023-02-14T03:57:07.352Z,1025.59
2023-02-14T04:00:07.347Z,1025.63
2023-02-14T04:03:07.387Z,1025.67
2023-02-14T04:06:07.339Z,1025.67
2023-02-14T04:09:07.340Z,1025.67
2023-02-14T04:12:07.353Z,1025.71
2023-02-14T04:15:07.338Z,1025.72
2023-02-14T04:18:07.361Z,1025.72
2023-02-14T04:21:07.339Z,1025.72
2023-02-14T04:24:07.340Z,1025.71
2023-02-14T04:27:07.340Z,1025.71
2023-02-14T04:30:07.374Z,1025.73
2023-02-14T04:33:07.338Z,1025.68
2023-02-14T04:36:07.399Z,1025.68
2023-02-14T04:39:07.355Z,1025.68
2023-02-14T04:42:07.344Z,1025.72
2023-02-14T04:45:07.345Z,1025.76
2023-02-14T04:48:07.348Z,1025.74
2023-02-14T04:51:07.348Z,1025.78
2023-02-14T04:54:07.343Z,1025.75
2023-02-14T04:57:07.350Z,1025.76
2023-02-14T05:00:07.352Z,1025.8
2023-02-14T05:03:07.342Z,1025.82
2023-02-14T05:06:07.353Z,1025.78
2023-02-14T05:09:07.343Z,1025.82
2023-02-14T05:12:07.355Z,1025.81
2023-02-14T05:15:07.345Z,1025.82
2023-02-14T05:18:07.344Z,1025.81
2023-02-14T05:21:07.344Z,1025.82
2023-02-14T05:24:07.354Z,1025.86
2023-02-14T05:27:07.355Z,1025.84
2023-02-14T05:30:07.390Z,1025.87
2023-02-14T05:33:07.353Z,1025.87
2023-02-14T05:36:07.354Z,1025.89
2023-02-14T05:39:07.343Z,1025.89
2023-02-14T05:45:07.349Z,1025.92
2023-02-14T05:48:07.365Z,1025.92
2023-02-14T05:51:07.359Z,1025.91
2023-02-14T05:54:08.865Z,1025.88
2023-02-14T05:57:07.358Z,1025.88
2023-02-14T06:00:07.382Z,1025.9
2023-02-14T06:03:07.355Z,1025.87
2023-02-14T06:06:07.360Z,1025.91
2023-02-14T06:09:07.370Z,1025.91
2023-02-14T06:12:07.365Z,1025.94
2023-02-14T06:15:07.362Z,1025.89
2023-02-14T06:18:07.363Z,1025.91
2023-02-14T06:21:07.377Z,1025.92
2023-02-14T06:24:07.376Z,1025.87
2023-02-14T06:27:07.375Z,1025.87
2023-02-14T06:30:07.406Z,1025.87
2023-02-14T06:33:07.363Z,1025.92
2023-02-14T06:36:07.357Z,1025.93
2023-02-14T06:39:07.364Z,1025.88
2023-02-14T06:42:07.361Z,1025.95
2023-02-14T06:45:07.368Z,1025.97
2023-02-14T06:48:07.368Z,1025.95
2023-02-14T06:51:07.368Z,1025.93
2023-02-14T06:54:07.377Z,1025.92
2023-02-14T06:57:07.365Z,1025.9
2023-02-14T07:00:07.370Z,1025.9
2023-02-14T07:03:07.374Z,1025.86
2023-02-14T07:06:07.372Z,1025.89
2023-02-14T07:09:07.369Z,1025.9
2023-02-14T07:12:07.375Z,1025.88
2023-02-14T07:15:07.373Z,1025.87
2023-02-14T07:18:07.370Z,1025.87
2023-02-14T07:21:07.368Z,1025.89
2023-02-14T07:24:07.384Z,1025.87
2023-02-14T07:27:07.383Z,1025.9
2023-02-14T07:30:07.440Z,1025.9
2023-02-14T07:33:07.397Z,1025.9
2023-02-14T07:36:07.457Z,1025.92
2023-02-14T07:39:07.392Z,1025.87
2023-02-14T07:42:07.372Z,1025.93
2023-02-14T07:45:20.606Z,1025.93
2023-02-14T07:48:07.382Z,1025.95
2023-02-14T07:51:07.378Z,1025.96
2023-02-14T07:54:07.389Z,1025.92
2023-02-14T07:57:07.372Z,1025.91
2023-02-14T08:00:07.380Z,1025.96
2023-02-14T08:03:07.382Z,1025.96
2023-02-14T08:06:07.374Z,1025.97
2023-02-14T08:09:07.393Z,1025.91
2023-02-14T08:12:07.383Z,1025.88
2023-02-14T08:15:07.374Z,1025.9
2023-02-14T08:18:07.380Z,1025.86
2023-02-14T08:21:07.395Z,1025.89
2023-02-14T08:24:07.429Z,1025.89
2023-02-14T08:27:07.377Z,1025.91
2023-02-14T08:30:07.453Z,1025.95
2023-02-14T08:33:07.388Z,1025.95
2023-02-14T08:36:07.376Z,1025.95
2023-02-14T08:39:07.388Z,1025.94
2023-02-14T08:42:07.383Z,1025.92
2023-02-14T08:45:07.384Z,1025.93
2023-02-14T08:48:07.386Z,1025.9
2023-02-14T08:51:07.394Z,1025.9
2023-02-14T08:54:07.404Z,1025.9
2023-02-14T08:57:07.384Z,1025.9
2023-02-14T09:00:07.433Z,1025.9
2023-02-14T09:03:07.403Z,1025.9
2023-02-14T09:06:07.391Z,1025.87
2023-02-14T09:09:07.425Z,1025.84
2023-02-14T09:12:07.390Z,1025.87
2023-02-14T09:15:07.394Z,1025.85
2023-02-14T09:18:07.450Z,1025.86
2023-02-14T09:21:07.388Z,1025.82
2023-02-14T09:24:07.400Z,1025.8
2023-02-14T09:27:07.390Z,1025.83
2023-02-14T09:30:07.463Z,1025.77
2023-02-14T09:33:07.385Z,1025.8
2023-02-14T09:36:07.395Z,1025.79
2023-02-14T09:39:07.402Z,1025.78
2023-02-14T09:42:07.390Z,1025.78
2023-02-14T09:45:07.387Z,1025.82
2023-02-14T09:48:07.388Z,1025.85
2023-02-14T09:51:07.408Z,1025.82
2023-02-14T09:54:07.408Z,1025.78
2023-02-14T09:57:07.397Z,1025.77
2023-02-14T10:00:07.395Z,1025.77
2023-02-14T10:03:07.393Z,1025.79
2023-02-14T10:06:07.389Z,1025.79
2023-02-14T10:09:07.410Z,1025.8
2023-02-14T10:12:08.602Z,1025.77
2023-02-14T10:15:07.402Z,1025.8
2023-02-14T10:18:07.402Z,1025.8
2023-02-14T10:21:07.390Z,1025.77
2023-02-14T10:24:07.414Z,1025.81
2023-02-14T10:27:10.275Z,1025.8
2023-02-14T10:30:07.444Z,1025.77
2023-02-14T10:33:07.401Z,1025.81
2023-02-14T10:36:07.399Z,1025.81
2023-02-14T10:39:07.418Z,1025.83
2023-02-14T10:42:07.393Z,1025.79
2023-02-14T10:45:07.399Z,1025.81
2023-02-14T10:48:07.401Z,1025.75
2023-02-14T10:51:07.401Z,1025.69
2023-02-14T10:54:07.416Z,1025.6
2023-02-14T10:57:07.402Z,1025.6
2023-02-14T11:00:07.408Z,1025.56
2023-02-14T11:03:07.441Z,1025.53
2023-02-14T11:06:07.406Z,1025.5
2023-02-14T11:09:07.414Z,1025.48
2023-02-14T11:12:07.416Z,1025.43
2023-02-14T11:15:07.402Z,1025.38
2023-02-14T11:18:07.406Z,1025.36
2023-02-14T11:21:07.414Z,1025.34
2023-02-14T11:24:07.413Z,1025.33
2023-02-14T11:27:07.409Z,1025.28
2023-02-14T11:30:07.430Z,1025.23
2023-02-14T11:33:07.404Z,1025.19
2023-02-14T11:36:07.411Z,1025.11
2023-02-14T11:39:07.413Z,1025.08
2023-02-14T11:42:07.418Z,1025.09
2023-02-14T11:45:07.411Z,1025.07
2023-02-14T11:48:07.406Z,1025.04
2023-02-14T11:51:07.414Z,1024.99
2023-02-14T11:54:07.416Z,1024.93
2023-02-14T11:57:07.471Z,1024.94
2023-02-14T12:00:07.409Z,1024.9
2023-02-14T12:03:07.436Z,1024.9
2023-02-14T12:06:07.412Z,1024.86
2023-02-14T12:09:07.421Z,1024.85
2023-02-14T12:12:07.422Z,1024.81
2023-02-14T12:15:07.417Z,1024.79
2023-02-14T12:18:07.410Z,1024.75
2023-02-14T12:21:07.416Z,1024.72
2023-02-14T12:24:07.431Z,1024.71
2023-02-14T12:27:07.429Z,1024.74
2023-02-14T12:30:07.472Z,1024.68
2023-02-14T12:33:07.417Z,1024.63
2023-02-14T12:36:07.411Z,1024.6
2023-02-14T12:39:07.419Z,1024.57
2023-02-14T12:42:07.418Z,1024.58
2023-02-14T12:45:07.421Z,1024.5
2023-02-14T12:48:07.421Z,1024.44
2023-02-14T12:51:07.441Z,1024.42
2023-02-14T12:54:07.435Z,1024.35
2023-02-14T12:57:07.414Z,1024.31
2023-02-14T13:00:07.459Z,1024.27
2023-02-14T13:03:07.441Z,1024.21
2023-02-14T13:06:07.418Z,1024.2
2023-02-14T13:09:07.434Z,1024.17
2023-02-14T13:12:07.428Z,1024.12
2023-02-14T13:15:07.413Z,1024.05
2023-02-14T13:18:07.418Z,1024.02
2023-02-14T13:21:07.426Z,1023.99
2023-02-14T13:24:07.480Z,1023.93
2023-02-14T13:27:07.422Z,1023.91
2023-02-14T13:30:07.438Z,1023.89
2023-02-14T13:33:07.420Z,1023.85
2023-02-14T13:36:07.419Z,1023.88
2023-02-14T13:39:07.435Z,1023.78
2023-02-14T13:42:07.460Z,1023.76
2023-02-14T13:45:07.435Z,1023.75
2023-02-14T13:48:07.424Z,1023.71
2023-02-14T13:51:07.433Z,1023.72
2023-02-14T13:54:07.435Z,1023.72
2023-02-14T13:57:07.423Z,1023.72
2023-02-14T14:00:07.420Z,1023.68
2023-02-14T14:03:07.428Z,1023.66
2023-02-14T14:06:07.421Z,1023.61
2023-02-14T14:09:07.438Z,1023.59
2023-02-14T14:12:07.426Z,1023.54
2023-02-14T14:15:07.450Z,1023.53
2023-02-14T14:18:07.467Z,1023.56
2023-02-14T14:21:07.443Z,1023.48
2023-02-14T14:24:07.454Z,1023.45
2023-02-14T14:27:07.442Z,1023.45
2023-02-14T14:30:07.499Z,1023.41
2023-02-14T14:33:08.180Z,1023.37
2023-02-14T14:36:08.613Z,1023.33
2023-02-14T14:39:08.177Z,1023.31
2023-02-14T14:42:08.181Z,1023.34
2023-02-14T14:45:08.178Z,1023.32
2023-02-14T14:48:08.188Z,1023.29
2023-02-14T14:51:08.181Z,1023.26
2023-02-14T14:54:08.182Z,1023.23
2023-02-14T14:57:08.190Z,1023.19
2023-02-14T15:00:08.189Z,1023.18
2023-02-14T15:03:08.195Z,1023.14
2023-02-14T15:06:08.193Z,1023.09
2023-02-14T15:09:08.188Z,1023.06
2023-02-14T15:12:08.196Z,1023
2023-02-14T15:15:08.205Z,1023
2023-02-14T15:18:08.216Z,1022.94
2023-02-14T15:21:08.202Z,1022.9
2023-02-14T15:24:08.208Z,1022.92
2023-02-14T15:27:08.205Z,1022.9
2023-02-14T15:30:08.225Z,1022.93
2023-02-14T15:33:08.204Z,1022.91
2023-02-14T15:36:08.213Z,1022.92
2023-02-14T15:39:08.200Z,1022.93
2023-02-14T15:42:08.255Z,1022.91
2023-02-14T15:45:08.208Z,1022.89
2023-02-14T15:48:08.205Z,1022.84
2023-02-14T15:51:08.201Z,1022.88
2023-02-14T15:54:08.212Z,1022.84
2023-02-14T15:57:08.213Z,1022.81
2023-02-14T16:00:08.309Z,1022.8
2023-02-14T16:03:08.214Z,1022.77
2023-02-14T16:06:08.193Z,1022.85
2023-02-14T16:09:08.197Z,1022.82
2023-02-14T16:12:08.207Z,1022.83
2023-02-14T16:15:08.199Z,1022.8
2023-02-14T16:18:08.434Z,1022.84
2023-02-14T16:21:08.195Z,1022.81
2023-02-14T16:24:08.255Z,1022.82
2023-02-14T16:27:08.195Z,1022.85
2023-02-14T16:30:08.211Z,1022.9
2023-02-14T16:33:08.199Z,1022.88
2023-02-14T16:36:08.207Z,1022.89
2023-02-14T16:39:08.209Z,1022.96
2023-02-14T16:42:08.215Z,1022.93
2023-02-14T16:45:08.268Z,1022.91
2023-02-14T16:48:08.217Z,1022.88
2023-02-14T16:51:08.241Z,1022.86
2023-02-14T16:54:08.217Z,1022.89
2023-02-14T16:57:08.221Z,1022.88
2023-02-14T17:00:08.223Z,1022.9
2023-02-14T17:03:08.285Z,1022.89
2023-02-14T17:06:08.219Z,1022.87
2023-02-14T17:09:08.224Z,1022.85
2023-02-14T17:12:08.231Z,1022.9
2023-02-14T17:15:08.233Z,1022.93
2023-02-14T17:18:08.236Z,1022.95
2023-02-14T17:21:08.231Z,1023.01
2023-02-14T17:24:08.235Z,1023.05
2023-02-14T17:27:08.237Z,1023.04
2023-02-14T17:30:08.302Z,1023.08
2023-02-14T17:33:08.238Z,1023.16
2023-02-14T17:36:10.114Z,1023.2
2023-02-14T17:39:08.258Z,1023.21
2023-02-14T17:42:09.917Z,1023.22
2023-02-14T17:45:08.237Z,1023.23
2023-02-14T17:48:10.229Z,1023.21
2023-02-14T17:51:08.237Z,1023.25
2023-02-14T17:54:08.246Z,1023.2
2023-02-14T17:57:08.245Z,1023.21
2023-02-14T18:00:09.627Z,1023.2
2023-02-14T18:03:08.321Z,1023.15
2023-02-14T18:06:09.823Z,1023.14
2023-02-14T18:09:08.242Z,1023.14
2023-02-14T18:12:11.192Z,1023.14
2023-02-14T18:15:08.240Z,1023.1
2023-02-14T18:18:09.594Z,1023.09
2023-02-14T18:21:08.251Z,1023.09
2023-02-14T18:24:08.255Z,1023.03
2023-02-14T18:27:08.309Z,1023.02
2023-02-14T18:30:08.284Z,1023.04
2023-02-14T18:33:08.242Z,1023
2023-02-14T18:36:08.260Z,1022.99
2023-02-14T18:39:08.240Z,1022.97
2023-02-14T18:42:08.242Z,1022.99
2023-02-14T18:45:08.246Z,1022.99
2023-02-14T18:48:08.233Z,1022.97
2023-02-14T18:51:08.250Z,1022.93
2023-02-14T18:54:08.236Z,1022.86
2023-02-14T18:57:08.248Z,1022.83
2023-02-14T19:00:08.269Z,1022.8
2023-02-14T19:03:08.267Z,1022.79
2023-02-14T19:06:08.281Z,1022.78
2023-02-14T19:09:08.272Z,1022.77
2023-02-14T19:12:08.286Z,1022.68
2023-02-14T19:15:08.257Z,1022.68
2023-02-14T19:18:08.292Z,1022.7
2023-02-14T19:21:08.271Z,1022.67
2023-02-14T19:24:08.254Z,1022.65
2023-02-14T19:27:08.276Z,1022.66
2023-02-14T19:30:08.296Z,1022.68
2023-02-14T19:33:08.273Z,1022.67
2023-02-14T19:36:08.279Z,1022.67
2023-02-14T19:39:08.274Z,1022.68
2023-02-14T19:42:08.279Z,1022.64
2023-02-14T19:45:08.277Z,1022.6
2023-02-14T19:48:08.308Z,1022.6
2023-02-14T19:51:08.253Z,1022.57
2023-02-14T19:54:08.245Z,1022.58
2023-02-14T19:57:08.256Z,1022.56
2023-02-14T20:00:08.251Z,1022.53
2023-02-14T20:03:08.280Z,1022.52
2023-02-14T20:06:08.250Z,1022.49
2023-02-14T20:09:08.264Z,1022.49
2023-02-14T20:12:08.262Z,1022.48
2023-02-14T20:15:10.599Z,1022.5
2023-02-14T20:18:08.246Z,1022.49
2023-02-14T20:21:08.267Z,1022.46
2023-02-14T20:24:08.259Z,1022.43
2023-02-14T20:27:08.310Z,1022.39
2023-02-14T20:30:08.288Z,1022.4
2023-02-14T20:33:08.256Z,1022.4
2023-02-14T20:36:08.287Z,1022.4
2023-02-14T20:39:08.284Z,1022.38
2023-02-14T20:42:08.294Z,1022.37
2023-02-14T20:45:08.274Z,1022.33
2023-02-14T20:48:08.297Z,1022.33
2023-02-14T20:51:08.277Z,1022.3
2023-02-14T20:54:08.252Z,1022.24
2023-02-14T20:57:08.317Z,1022.18
2023-02-14T21:00:08.296Z,1022.18
2023-02-14T21:03:08.296Z,1022.16
2023-02-14T21:06:08.294Z,1022.14
2023-02-14T21:09:08.253Z,1022.17
2023-02-14T21:12:08.313Z,1022.17
2023-02-14T21:15:08.294Z,1022.19
2023-02-14T21:18:08.305Z,1022.13
2023-02-14T21:21:08.306Z,1022.08
2023-02-14T21:24:08.262Z,1022.05
2023-02-14T21:27:08.265Z,1021.99
2023-02-14T21:30:08.296Z,1021.97
2023-02-14T21:33:08.267Z,1021.98
2023-02-14T21:36:08.293Z,1021.98
2023-02-14T21:39:08.272Z,1021.98
2023-02-14T21:42:08.267Z,1021.96
2023-02-14T21:45:08.312Z,1021.89
2023-02-14T21:48:08.302Z,1021.82
2023-02-14T21:51:08.323Z,1021.77
2023-02-14T21:54:08.284Z,1021.76
2023-02-14T21:57:08.272Z,1021.77
2023-02-14T22:00:08.270Z,1021.8
2023-02-14T22:03:08.273Z,1021.79
2023-02-14T22:06:08.269Z,1021.75
2023-02-14T22:09:09.843Z,1021.74
2023-02-14T22:12:09.658Z,1021.69
2023-02-14T22:15:09.660Z,1021.66
2023-02-14T22:18:09.649Z,1021.66
2023-02-14T22:21:09.650Z,1021.69
2023-02-14T22:24:09.652Z,1021.7
2023-02-14T22:27:09.649Z,1021.69
2023-02-14T22:30:09.649Z,1021.7
2023-02-14T22:33:09.666Z,1021.67
2023-02-14T22:36:09.650Z,1021.65
2023-02-14T22:39:09.649Z,1021.69
2023-02-14T22:42:09.645Z,1021.66
2023-02-14T22:45:09.653Z,1021.6
2023-02-14T22:48:09.638Z,1021.55
2023-02-14T22:51:09.640Z,1021.54
2023-02-14T22:54:09.648Z,1021.55
2023-02-14T22:57:09.652Z,1021.54
2023-02-14T23:00:09.669Z,1021.49
2023-02-14T23:03:09.653Z,1021.49
2023-02-14T23:06:09.641Z,1021.51
2023-02-14T23:09:09.637Z,1021.54
2023-02-14T23:12:09.651Z,1021.51
2023-02-14T23:15:09.643Z,1021.55
2023-02-14T23:18:09.641Z,1021.57
2023-02-14T23:21:09.644Z,1021.55
2023-02-14T23:24:09.642Z,1021.55
2023-02-14T23:27:09.644Z,1021.55
2023-02-14T23:30:09.660Z,1021.57
2023-02-14T23:33:09.646Z,1021.62
2023-02-14T23:36:09.647Z,1021.6
2023-02-14T23:39:09.650Z,1021.61
2023-02-14T23:42:09.649Z,1021.62
2023-02-14T23:45:09.655Z,1021.64
2023-02-14T23:48:09.657Z,1021.61
2023-02-14T23:51:09.651Z,1021.58
2023-02-14T23:54:09.654Z,1021.55
2023-02-14T23:57:09.655Z,1021.57
